Terminal Aerodrome Forecast
Issued by NWS

Home | Current Version | Previous Version | Text Only | Print | Product List | Glossary On
Versions: 1 2 3 4 5 6 7 8 9 10 11 12 13 14 15 16 17 18 19 20 21 22 23 24 25
000
FTUS41 KPBZ 042333
TAFLBE
TAF
KLBE 042333Z 0500/0524 VRB03KT P6SM -SHRA BKN060
     FM050300 VRB03KT 3SM -SHRA OVC025
     FM050900 VRB03KT 5SM BR VCSH OVC015
     FM051800 35005KT P6SM VCSH OVC025=

USA.gov is the U.S. government's official web portal to all federal, state and local government web resources and services.